Erenhot, China
Current Conditions -  °F | °C
As of 9:00 AM on Saturday 25 Oct 2014 (Local Time) from ZBHH Reporting Station
Clear Clear  
Wind Chill: 50°   Ceiling: Unl
Heat Index: 50°   Visibility: 5mi
Dew Point: 36°   Wind: 4mph
Humidity: 58%   Direction: 50°NE
Pressure: 30"   Gusts: NA
Location:  43.66°N, 111.96°E
Report Text: ZBHH 250100Z 05002MPS 8000 NSC 10/02 Q1016 NOSIG
Loading
Personal Weather Stations






























Interactive Weather Map
Tropical Storm Tracking
New forecast layout! Learn more

10-Day Weather Forecast

Advertisements
Track Severe Weather on mobile